createdAt,value
2019-03-30T00:00:55.337Z,17.57
2019-03-30T00:03:45.330Z,18.32
2019-03-30T00:06:34.565Z,18.90
2019-03-30T00:09:10.615Z,18.00
2019-03-30T00:12:00.658Z,18.12
2019-03-30T00:14:43.415Z,17.90
2019-03-30T00:17:33.014Z,17.62
2019-03-30T00:20:31.448Z,18.70
2019-03-30T00:23:20.647Z,17.20
2019-03-30T00:28:45.082Z,18.83
2019-03-30T00:31:21.762Z,18.65
2019-03-30T00:34:10.752Z,17.75
2019-03-30T00:36:53.882Z,17.82
2019-03-30T00:39:49.987Z,17.67
2019-03-30T00:42:40.151Z,17.73
2019-03-30T00:45:17.017Z,17.85
2019-03-30T00:48:09.280Z,17.85
2019-03-30T00:50:52.739Z,17.17
2019-03-30T00:53:42.054Z,18.02
2019-03-30T00:56:18.355Z,18.37
2019-03-30T00:59:07.025Z,18.67
2019-03-30T01:01:50.638Z,17.27
2019-03-30T01:04:33.257Z,17.73
2019-03-30T01:07:29.480Z,17.25
2019-03-30T01:10:25.142Z,15.93
2019-03-30T01:13:21.092Z,16.73
2019-03-30T01:16:16.634Z,16.30
2019-03-30T01:19:13.213Z,16.50
2019-03-30T01:22:08.689Z,17.20
2019-03-30T01:25:05.273Z,16.42
2019-03-30T01:28:01.488Z,17.42
2019-03-30T01:30:50.654Z,17.12
2019-03-30T01:33:26.277Z,16.62
2019-03-30T01:36:22.907Z,16.55
2019-03-30T01:39:14.496Z,16.17
2019-03-30T01:41:50.613Z,16.65
2019-03-30T01:44:41.300Z,16.87
2019-03-30T01:47:17.213Z,15.65
2019-03-30T01:50:16.688Z,15.23
2019-03-30T01:52:43.708Z,15.65
2019-03-30T01:55:33.779Z,15.78
2019-03-30T01:58:16.092Z,15.00
2019-03-30T02:01:05.467Z,15.60
2019-03-30T02:03:55.940Z,16.67
2019-03-30T02:06:31.968Z,16.05
2019-03-30T02:11:56.682Z,15.53
2019-03-30T02:14:45.911Z,14.53
2019-03-30T02:17:27.724Z,14.60
2019-03-30T02:20:30.395Z,14.83
2019-03-30T02:23:04.108Z,14.70
2019-03-30T02:25:54.335Z,14.90
2019-03-30T02:28:37.052Z,15.15
2019-03-30T02:31:27.515Z,15.05
2019-03-30T02:34:03.653Z,15.50
2019-03-30T02:36:53.322Z,15.35
2019-03-30T02:39:49.595Z,14.75
2019-03-30T02:42:45.694Z,15.15
2019-03-30T02:45:41.184Z,16.45
2019-03-30T02:48:37.445Z,14.75
2019-03-30T02:51:33.500Z,15.15
2019-03-30T02:54:29.471Z,15.63
2019-03-30T02:57:25.833Z,15.48
2019-03-30T03:00:16.233Z,15.25
2019-03-30T03:02:59.449Z,15.05
2019-03-30T03:05:47.703Z,15.30
2019-03-30T03:08:24.903Z,15.23
2019-03-30T03:11:14.756Z,15.23
2019-03-30T03:13:50.568Z,15.72
2019-03-30T03:16:40.107Z,15.95
2019-03-30T03:19:16.398Z,14.68
2019-03-30T03:22:06.127Z,15.50
2019-03-30T03:24:42.769Z,14.80
2019-03-30T03:27:34.342Z,14.47
2019-03-30T03:30:18.084Z,14.10
2019-03-30T03:33:13.392Z,14.15
2019-03-30T03:36:09.583Z,13.38
2019-03-30T03:39:06.744Z,13.95
2019-03-30T03:42:02.891Z,13.98
2019-03-30T03:44:59.130Z,14.55
2019-03-30T03:47:55.927Z,14.13
2019-03-30T03:50:56.101Z,13.85
2019-03-30T03:53:45.799Z,14.15
2019-03-30T03:56:22.354Z,14.43
2019-03-30T03:59:11.657Z,15.45
2019-03-30T04:01:47.975Z,14.33
2019-03-30T04:04:37.130Z,13.90
2019-03-30T04:07:13.974Z,13.68
2019-03-30T04:10:04.939Z,14.15
2019-03-30T04:12:48.988Z,14.45
2019-03-30T04:15:37.814Z,14.20
2019-03-30T04:18:20.221Z,14.10
2019-03-30T04:21:10.391Z,13.88
2019-03-30T04:23:47.521Z,14.45
2019-03-30T04:26:35.871Z,13.70
2019-03-30T04:29:13.701Z,14.45
2019-03-30T04:32:02.681Z,14.07
2019-03-30T04:34:52.050Z,14.23
2019-03-30T04:37:28.303Z,13.55
2019-03-30T04:40:18.826Z,14.30
2019-03-30T04:42:55.101Z,14.13
2019-03-30T04:45:43.802Z,15.10
2019-03-30T04:48:20.779Z,13.58
2019-03-30T04:51:10.111Z,14.40
2019-03-30T04:53:46.049Z,13.75
2019-03-30T04:56:35.886Z,15.65
2019-03-30T04:59:13.256Z,13.32
2019-03-30T05:02:03.319Z,14.93
2019-03-30T05:04:40.795Z,14.93
2019-03-30T05:07:30.259Z,15.25
2019-03-30T05:10:14.554Z,15.20
2019-03-30T05:13:04.143Z,14.47
2019-03-30T05:15:46.478Z,15.10
2019-03-30T05:18:33.173Z,14.85
2019-03-30T05:21:16.384Z,15.20
2019-03-30T05:23:59.908Z,15.10
2019-03-30T05:26:43.184Z,15.32
2019-03-30T05:29:26.645Z,16.05
2019-03-30T05:32:09.317Z,17.90
2019-03-30T05:34:53.994Z,18.30
2019-03-30T05:37:37.473Z,18.87
2019-03-30T05:40:33.603Z,20.72
2019-03-30T05:43:22.613Z,19.40
2019-03-30T05:46:11.998Z,20.92
2019-03-30T05:48:49.737Z,17.30
2019-03-30T05:51:39.001Z,19.20
2019-03-30T05:54:15.026Z,19.37
2019-03-30T05:57:04.511Z,20.68
2019-03-30T05:59:43.015Z,20.05
2019-03-30T06:02:33.546Z,17.82
2019-03-30T06:05:09.419Z,18.42
2019-03-30T06:07:59.338Z,18.45
2019-03-30T06:10:57.085Z,16.95
2019-03-30T06:13:54.201Z,16.80
2019-03-30T06:16:44.338Z,15.83
2019-03-30T06:19:20.699Z,15.53
2019-03-30T06:22:10.588Z,16.48
2019-03-30T06:24:47.161Z,16.12
2019-03-30T06:27:38.541Z,14.55
2019-03-30T06:30:33.769Z,14.47
2019-03-30T06:33:31.477Z,16.32
2019-03-30T06:36:29.397Z,16.90
2019-03-30T06:39:19.426Z,16.90
2019-03-30T06:41:56.113Z,17.52
2019-03-30T06:44:45.732Z,18.02
2019-03-30T06:47:21.904Z,17.65
2019-03-30T06:50:14.766Z,17.60
2019-03-30T06:52:58.861Z,17.30
2019-03-30T06:55:54.050Z,15.93
2019-03-30T06:58:42.688Z,15.05
2019-03-30T07:01:18.858Z,14.13
2019-03-30T07:04:11.256Z,13.48
2019-03-30T07:06:47.914Z,13.88
2019-03-30T07:09:39.914Z,14.93
2019-03-30T07:12:22.302Z,14.65
2019-03-30T07:15:19.195Z,14.03
2019-03-30T07:18:11.645Z,15.10
2019-03-30T07:20:48.649Z,15.40
2019-03-30T07:23:39.782Z,16.80
2019-03-30T07:26:30.157Z,17.05
2019-03-30T07:29:19.482Z,17.07
2019-03-30T07:32:09.714Z,16.93
2019-03-30T07:35:07.106Z,18.00
2019-03-30T07:38:02.290Z,17.07
2019-03-30T07:40:58.287Z,18.25
2019-03-30T07:43:47.711Z,19.15
2019-03-30T07:46:24.151Z,19.62
2019-03-30T07:49:13.320Z,17.82
2019-03-30T07:51:50.015Z,17.57
2019-03-30T07:54:39.483Z,18.75
2019-03-30T07:57:17.548Z,18.37
2019-03-30T08:00:14.695Z,16.73
2019-03-30T08:02:57.989Z,16.07
2019-03-30T08:05:55.133Z,15.25
2019-03-30T08:08:44.103Z,15.63
2019-03-30T08:11:30.271Z,14.87
2019-03-30T08:14:26.844Z,13.90
2019-03-30T08:17:22.333Z,15.58
2019-03-30T08:20:19.659Z,15.23
2019-03-30T08:23:09.820Z,15.35
2019-03-30T08:25:52.506Z,15.05
2019-03-30T08:28:48.357Z,14.73
2019-03-30T08:31:37.647Z,15.15
2019-03-30T08:37:09.353Z,15.72
2019-03-30T08:39:51.840Z,16.00
2019-03-30T08:42:43.089Z,16.87
2019-03-30T08:45:26.373Z,15.88
2019-03-30T08:48:17.391Z,17.75
2019-03-30T08:51:05.227Z,16.77
2019-03-30T08:54:02.373Z,16.85
2019-03-30T08:56:57.761Z,17.48
2019-03-30T08:59:57.449Z,16.70
2019-03-30T09:02:48.815Z,18.32
2019-03-30T09:05:31.172Z,18.12
2019-03-30T09:08:27.725Z,17.77
2019-03-30T09:11:25.187Z,17.92
2019-03-30T09:14:17.771Z,18.80
2019-03-30T09:17:07.330Z,19.35
2019-03-30T09:19:43.605Z,18.00
2019-03-30T09:22:31.904Z,20.00
2019-03-30T09:25:20.243Z,19.85
2019-03-30T09:28:03.562Z,19.40
2019-03-30T09:30:46.031Z,18.92
2019-03-30T09:33:36.013Z,18.15
2019-03-30T09:36:18.294Z,19.40
2019-03-30T09:39:08.515Z,19.32
2019-03-30T09:41:51.806Z,18.85
2019-03-30T09:44:35.383Z,17.92
2019-03-30T09:47:17.641Z,17.77
2019-03-30T09:50:02.504Z,17.80
2019-03-30T09:52:46.545Z,18.73
2019-03-30T09:55:29.440Z,17.35
2019-03-30T09:58:18.567Z,17.65
2019-03-30T10:00:54.455Z,17.27
2019-03-30T10:03:44.877Z,18.57
2019-03-30T10:06:30.500Z,17.37
2019-03-30T10:09:12.485Z,18.37
2019-03-30T10:11:48.289Z,18.23
2019-03-30T10:14:37.648Z,16.27
2019-03-30T10:17:14.449Z,16.52
2019-03-30T10:20:04.970Z,16.42
2019-03-30T10:22:42.344Z,16.85
2019-03-30T10:25:33.081Z,16.27
2019-03-30T10:28:11.217Z,16.57
2019-03-30T10:31:01.254Z,16.52
2019-03-30T10:33:37.040Z,17.55
2019-03-30T10:36:26.362Z,18.42
2019-03-30T10:39:01.992Z,16.25
2019-03-30T10:41:52.558Z,16.37
2019-03-30T10:44:29.027Z,16.25
2019-03-30T10:47:18.597Z,16.37
2019-03-30T10:49:54.646Z,15.68
2019-03-30T10:52:43.881Z,15.53
2019-03-30T10:55:20.639Z,15.80
2019-03-30T10:58:09.647Z,15.48
2019-03-30T11:00:54.183Z,15.88
2019-03-30T11:03:44.228Z,16.77
2019-03-30T11:06:22.253Z,16.75
2019-03-30T11:09:12.257Z,16.07
2019-03-30T11:11:55.682Z,15.40
2019-03-30T11:14:37.745Z,16.57
2019-03-30T11:17:22.302Z,13.53
2019-03-30T11:20:05.573Z,14.25
2019-03-30T11:22:48.386Z,13.43
2019-03-30T11:25:31.312Z,14.28
2019-03-30T11:28:22.782Z,14.50
2019-03-30T11:31:05.897Z,15.15
2019-03-30T11:33:50.787Z,14.68
2019-03-30T11:36:32.856Z,14.07
2019-03-30T11:39:15.662Z,13.28
2019-03-30T11:41:58.674Z,14.45
2019-03-30T11:44:48.354Z,14.47
2019-03-30T11:47:24.502Z,14.05
2019-03-30T11:50:14.230Z,13.22
2019-03-30T11:52:57.798Z,14.95
2019-03-30T11:55:41.498Z,14.28
2019-03-30T11:58:23.685Z,15.93
2019-03-30T12:01:13.365Z,15.63
2019-03-30T12:03:57.996Z,15.63
2019-03-30T12:06:43.020Z,15.10
2019-03-30T12:09:26.617Z,16.80
2019-03-30T12:12:11.723Z,15.48
2019-03-30T12:14:54.743Z,15.50
2019-03-30T12:17:41.104Z,16.07
2019-03-30T12:20:23.266Z,15.08
2019-03-30T12:23:05.460Z,15.53
2019-03-30T12:25:48.222Z,15.58
2019-03-30T12:28:37.303Z,15.80
2019-03-30T12:31:19.777Z,15.15
2019-03-30T12:34:09.191Z,15.03
2019-03-30T12:37:05.968Z,14.33
2019-03-30T12:39:58.084Z,14.50
2019-03-30T12:42:32.766Z,13.80
2019-03-30T12:45:23.007Z,13.48
2019-03-30T12:48:05.773Z,14.13
2019-03-30T12:51:05.715Z,13.28
2019-03-30T12:54:01.436Z,13.70
2019-03-30T12:56:50.021Z,13.78
2019-03-30T12:59:26.362Z,14.23
2019-03-30T13:02:15.720Z,14.25
2019-03-30T13:04:53.017Z,14.13
2019-03-30T13:07:42.343Z,14.35
2019-03-30T13:10:19.017Z,14.78
2019-03-30T13:13:09.637Z,14.28
2019-03-30T13:15:46.134Z,13.72
2019-03-30T13:18:35.229Z,13.90
2019-03-30T13:21:12.252Z,14.43
2019-03-30T13:24:01.464Z,13.98
2019-03-30T13:26:38.015Z,13.68
2019-03-30T13:29:27.808Z,12.75
2019-03-30T13:32:17.232Z,14.33
2019-03-30T13:35:13.478Z,15.13
2019-03-30T13:38:11.067Z,14.93
2019-03-30T13:41:07.931Z,14.90
2019-03-30T13:44:05.667Z,16.30
2019-03-30T13:46:54.007Z,14.50
2019-03-30T13:49:32.263Z,15.38
2019-03-30T13:52:21.745Z,15.15
2019-03-30T13:55:12.017Z,14.90
2019-03-30T13:57:55.024Z,14.38
2019-03-30T14:00:44.309Z,14.47
2019-03-30T14:03:26.883Z,15.58
2019-03-30T14:06:16.418Z,15.85
2019-03-30T14:08:52.598Z,14.53
2019-03-30T14:11:42.963Z,14.28
2019-03-30T14:14:27.688Z,15.35
2019-03-30T14:17:09.973Z,14.90
2019-03-30T14:19:54.895Z,15.18
2019-03-30T14:22:38.722Z,14.83
2019-03-30T14:25:21.697Z,15.95
2019-03-30T14:28:05.651Z,14.90
2019-03-30T14:30:48.481Z,15.05
2019-03-30T14:33:32.965Z,15.35
2019-03-30T14:36:16.254Z,14.98
2019-03-30T14:39:12.672Z,16.07
2019-03-30T14:42:07.925Z,14.80
2019-03-30T14:45:03.412Z,17.60
2019-03-30T14:48:00.301Z,15.43
2019-03-30T14:50:57.107Z,17.60
2019-03-30T14:53:45.639Z,18.42
2019-03-30T14:56:44.519Z,14.93
2019-03-30T14:59:32.722Z,16.00
2019-03-30T15:02:29.760Z,15.80
2019-03-30T15:05:29.509Z,14.65
2019-03-30T15:08:19.973Z,16.95
2019-03-30T15:10:56.667Z,14.85
2019-03-30T15:13:46.636Z,15.90
2019-03-30T15:16:27.513Z,16.12
2019-03-30T15:19:17.767Z,16.17
2019-03-30T15:21:57.082Z,18.12
2019-03-30T15:24:47.434Z,16.27
2019-03-30T15:30:37.946Z,15.72
2019-03-30T15:33:30.789Z,16.15
2019-03-30T15:36:15.967Z,16.05
2019-03-30T15:39:14.443Z,15.50
2019-03-30T15:42:06.792Z,16.07
2019-03-30T15:44:43.526Z,16.32
2019-03-30T15:47:33.263Z,16.37
2019-03-30T15:50:17.836Z,15.28
2019-03-30T15:53:10.066Z,15.88
2019-03-30T15:56:05.260Z,15.25
2019-03-30T15:59:02.517Z,15.80
2019-03-30T16:02:01.508Z,15.60
2019-03-30T16:04:46.701Z,15.58
2019-03-30T16:07:36.691Z,16.12
2019-03-30T16:10:19.750Z,16.12
2019-03-30T16:13:16.209Z,15.85
2019-03-30T16:16:01.753Z,16.52
2019-03-30T16:18:51.961Z,16.10
2019-03-30T16:21:35.798Z,16.67
2019-03-30T16:24:30.144Z,16.10
2019-03-30T16:27:06.962Z,15.70
2019-03-30T16:29:58.610Z,16.32
2019-03-30T16:32:34.871Z,15.75
2019-03-30T16:35:26.232Z,16.35
2019-03-30T16:38:02.247Z,15.80
2019-03-30T16:40:51.643Z,14.73
2019-03-30T16:43:54.167Z,15.72
2019-03-30T16:46:52.822Z,16.48
2019-03-30T16:49:48.645Z,16.32
2019-03-30T16:52:42.509Z,16.40
2019-03-30T16:55:19.876Z,16.35
2019-03-30T17:00:56.347Z,16.30
2019-03-30T17:03:30.806Z,17.10
2019-03-30T17:06:27.435Z,15.28
2019-03-30T17:09:21.168Z,15.45
2019-03-30T17:12:04.317Z,17.10
2019-03-30T17:15:00.399Z,15.38
2019-03-30T17:17:43.807Z,16.30
2019-03-30T17:20:25.894Z,17.02
2019-03-30T17:23:09.973Z,16.67
2019-03-30T17:26:06.118Z,16.23
2019-03-30T17:29:02.746Z,18.23
2019-03-30T17:31:51.249Z,17.82
2019-03-30T17:34:41.537Z,16.82
2019-03-30T17:37:24.378Z,16.77
2019-03-30T17:40:28.272Z,16.80
2019-03-30T17:43:24.539Z,17.02
2019-03-30T17:46:20.885Z,16.95
2019-03-30T17:49:16.153Z,16.95
2019-03-30T17:52:14.651Z,17.55
2019-03-30T17:55:04.349Z,16.85
2019-03-30T17:57:48.085Z,17.90
2019-03-30T18:00:36.447Z,17.75
2019-03-30T18:03:14.242Z,18.17
2019-03-30T18:06:03.243Z,16.95
2019-03-30T18:08:45.711Z,18.40
2019-03-30T18:11:28.097Z,18.32
2019-03-30T18:14:11.129Z,17.85
2019-03-30T18:16:53.390Z,19.10
2019-03-30T18:19:36.102Z,18.73
2019-03-30T18:22:25.522Z,20.40
2019-03-30T18:25:08.870Z,21.07
2019-03-30T18:28:06.311Z,21.93
2019-03-30T18:31:01.529Z,20.92
2019-03-30T18:33:57.950Z,22.45
2019-03-30T18:36:48.579Z,20.92
2019-03-30T18:39:38.631Z,21.23
2019-03-30T18:42:15.195Z,21.45
2019-03-30T18:45:05.224Z,21.57
2019-03-30T18:47:41.738Z,21.00
2019-03-30T18:50:31.796Z,21.12
2019-03-30T18:53:07.957Z,21.00
2019-03-30T18:55:57.388Z,21.73
2019-03-30T18:58:41.525Z,21.77
2019-03-30T19:01:24.135Z,20.15
2019-03-30T19:04:06.557Z,19.30
2019-03-30T19:06:56.304Z,19.00
2019-03-30T19:09:34.142Z,18.17
2019-03-30T19:12:25.019Z,17.12
2019-03-30T19:15:15.195Z,17.70
2019-03-30T19:20:41.467Z,18.02
2019-03-30T19:23:31.461Z,16.27
2019-03-30T19:26:07.445Z,17.32
2019-03-30T19:28:56.982Z,17.02
2019-03-30T19:31:32.878Z,18.45
2019-03-30T19:36:57.947Z,18.32
2019-03-30T19:39:48.087Z,20.02
2019-03-30T19:42:37.736Z,18.40
2019-03-30T19:45:33.165Z,19.75
2019-03-30T19:48:31.497Z,19.55
2019-03-30T19:51:27.651Z,18.37
2019-03-30T19:54:23.760Z,18.67
2019-03-30T19:57:19.405Z,17.80
2019-03-30T20:00:09.952Z,18.65
2019-03-30T20:02:46.373Z,18.70
2019-03-30T20:05:36.661Z,17.17
2019-03-30T20:08:12.859Z,17.73
2019-03-30T20:11:02.123Z,16.93
2019-03-30T20:13:44.874Z,17.25
2019-03-30T20:16:34.230Z,17.05
2019-03-30T20:19:12.627Z,17.65
2019-03-30T20:22:00.558Z,19.12
2019-03-30T20:24:43.795Z,21.85
2019-03-30T20:27:33.189Z,23.77
2019-03-30T20:33:13.117Z,24.80
2019-03-30T20:36:02.774Z,23.12
2019-03-30T20:38:45.938Z,24.87
2019-03-30T20:41:35.573Z,24.07
2019-03-30T20:44:18.255Z,24.20
2019-03-30T20:47:09.256Z,22.35
2019-03-30T20:49:52.585Z,21.73
2019-03-30T20:52:43.098Z,22.75
2019-03-30T20:55:20.363Z,22.73
2019-03-30T20:58:09.270Z,22.30
2019-03-30T21:00:52.629Z,22.90
2019-03-30T21:03:41.663Z,21.93
2019-03-30T21:06:18.249Z,22.02
2019-03-30T21:09:11.807Z,23.60
2019-03-30T21:11:47.383Z,24.20
2019-03-30T21:14:36.782Z,23.12
2019-03-30T21:17:19.434Z,22.52
2019-03-30T21:20:14.999Z,22.15
2019-03-30T21:23:03.717Z,22.42
2019-03-30T21:25:40.691Z,22.95
2019-03-30T21:28:29.786Z,22.80
2019-03-30T21:31:12.558Z,22.42
2019-03-30T21:33:58.433Z,22.37
2019-03-30T21:36:41.307Z,22.27
2019-03-30T21:39:24.822Z,22.40
2019-03-30T21:42:09.867Z,22.90
2019-03-30T21:44:52.662Z,22.27
2019-03-30T21:47:43.393Z,22.30
2019-03-30T21:50:26.609Z,21.55
2019-03-30T21:53:09.438Z,22.17
2019-03-30T21:55:51.081Z,22.05
2019-03-30T21:58:26.848Z,20.75
2019-03-30T22:01:16.595Z,20.55
2019-03-30T22:03:52.603Z,21.37
2019-03-30T22:06:41.994Z,21.37
2019-03-30T22:09:24.910Z,21.00
2019-03-30T22:12:19.968Z,22.02
2019-03-30T22:15:16.167Z,21.93
2019-03-30T22:18:04.851Z,21.45
2019-03-30T22:20:47.701Z,21.82
2019-03-30T22:23:36.353Z,20.50
2019-03-30T22:26:12.858Z,22.13
2019-03-30T22:29:02.039Z,22.35
2019-03-30T22:31:38.630Z,21.75
2019-03-30T22:34:27.386Z,21.33
2019-03-30T22:37:03.510Z,20.62
2019-03-30T22:39:53.369Z,20.35
2019-03-30T22:42:29.296Z,20.70
2019-03-30T22:45:25.457Z,21.87
2019-03-30T22:48:07.489Z,20.75
2019-03-30T22:50:56.539Z,21.62
2019-03-30T22:53:32.747Z,21.12
2019-03-30T22:56:22.658Z,21.33
2019-03-30T22:59:00.155Z,21.50
2019-03-30T23:01:49.571Z,23.00
2019-03-30T23:04:25.957Z,22.37
2019-03-30T23:07:15.457Z,22.98
2019-03-30T23:09:51.079Z,22.05
2019-03-30T23:15:15.561Z,20.02
2019-03-30T23:18:05.425Z,20.23
2019-03-30T23:21:01.481Z,21.77
2019-03-30T23:23:49.917Z,20.85
2019-03-30T23:26:33.908Z,20.75
2019-03-30T23:29:29.591Z,21.12
2019-03-30T23:32:18.424Z,21.40
2019-03-30T23:35:01.204Z,21.30
2019-03-30T23:37:57.796Z,21.62
2019-03-30T23:40:48.033Z,21.48
2019-03-30T23:43:26.104Z,21.42
2019-03-30T23:46:22.170Z,21.42
2019-03-30T23:49:13.638Z,21.30
2019-03-30T23:51:55.311Z,20.50
2019-03-30T23:54:38.132Z,20.70
2019-03-30T23:57:20.041Z,20.65
